<?xml version="1.0" encoding="utf-8"?>
<gpx xmlns:xsi="http://www.w3.org/2001/XMLSchema-instance" xmlns:xsd="http://www.w3.org/2001/XMLSchema" version="1.1" creator="Shapelink.com" xmlns="http://www.topografix.com/GPX/1/1" xmlns:gpxtpx="http://www.garmin.com/xmlschemas/TrackPointExtension/v1">
  <metadata>
    <name>Floorball 1.94 km, 2019-12-13</name>
    <desc></desc>
    <author><name>Peter Littke</name></author> 
    <time>2019-12-13T19:23:20Z</time>
  </metadata>
  <trk>
    <name>Floorball 1.94 km, 2019-12-13</name>
    <trkseg>
      <trkpt lat="59.340825" lon="18.084876">
        <ele>34</ele>
        <time>2019-12-13T19:23:20Z</time>
      </trkpt>
      <trkpt lat="59.340961" lon="18.08469">
        <ele>0</ele>
        <time>2019-12-13T19:23:22Z</time>
      </trkpt>
      <trkpt lat="59.341058" lon="18.084594">
        <ele>0</ele>
        <time>2019-12-13T19:23:23Z</time>
      </trkpt>
      <trkpt lat="59.341174" lon="18.084627">
        <ele>0</ele>
        <time>2019-12-13T19:23:27Z</time>
      </trkpt>
      <trkpt lat="59.341101" lon="18.084753">
        <ele>0</ele>
        <time>2019-12-13T19:23:36Z</time>
      </trkpt>
      <trkpt lat="59.341064" lon="18.084929">
        <ele>0</ele>
        <time>2019-12-13T19:23:45Z</time>
      </trkpt>
      <trkpt lat="59.341012" lon="18.085083">
        <ele>0</ele>
        <time>2019-12-13T19:23:50Z</time>
      </trkpt>
      <trkpt lat="59.340918" lon="18.085158">
        <ele>29</ele>
        <time>2019-12-13T19:23:59Z</time>
      </trkpt>
      <trkpt lat="59.340805" lon="18.085161">
        <ele>25</ele>
        <time>2019-12-13T19:24:04Z</time>
      </trkpt>
      <trkpt lat="59.340736" lon="18.085283">
        <ele>0</ele>
        <time>2019-12-13T19:24:13Z</time>
      </trkpt>
      <trkpt lat="59.340666" lon="18.08542">
        <ele>0</ele>
        <time>2019-12-13T19:24:20Z</time>
      </trkpt>
      <trkpt lat="59.340576" lon="18.085452">
        <ele>0</ele>
        <time>2019-12-13T19:24:36Z</time>
      </trkpt>
      <trkpt lat="59.340478" lon="18.085509">
        <ele>0</ele>
        <time>2019-12-13T19:24:41Z</time>
      </trkpt>
      <trkpt lat="59.340563" lon="18.08557">
        <ele>2</ele>
        <time>2019-12-13T19:25:33Z</time>
      </trkpt>
      <trkpt lat="59.340638" lon="18.085464">
        <ele>0</ele>
        <time>2019-12-13T19:26:43Z</time>
      </trkpt>
      <trkpt lat="59.340539" lon="18.085455">
        <ele>0</ele>
        <time>2019-12-13T19:26:58Z</time>
      </trkpt>
      <trkpt lat="59.340444" lon="18.085477">
        <ele>0</ele>
        <time>2019-12-13T19:27:03Z</time>
      </trkpt>
      <trkpt lat="59.34053" lon="18.085426">
        <ele>0</ele>
        <time>2019-12-13T19:27:36Z</time>
      </trkpt>
      <trkpt lat="59.340439" lon="18.085459">
        <ele>0</ele>
        <time>2019-12-13T19:27:48Z</time>
      </trkpt>
      <trkpt lat="59.34053" lon="18.085488">
        <ele>0</ele>
        <time>2019-12-13T19:28:05Z</time>
      </trkpt>
      <trkpt lat="59.340446" lon="18.085408">
        <ele>0</ele>
        <time>2019-12-13T19:28:23Z</time>
      </trkpt>
      <trkpt lat="59.340356" lon="18.08547">
        <ele>0</ele>
        <time>2019-12-13T19:28:29Z</time>
      </trkpt>
      <trkpt lat="59.340406" lon="18.085617">
        <ele>0</ele>
        <time>2019-12-13T19:28:37Z</time>
      </trkpt>
      <trkpt lat="59.34031" lon="18.08562">
        <ele>0</ele>
        <time>2019-12-13T19:28:51Z</time>
      </trkpt>
      <trkpt lat="59.340205" lon="18.085572">
        <ele>0</ele>
        <time>2019-12-13T19:28:58Z</time>
      </trkpt>
      <trkpt lat="59.340281" lon="18.085464">
        <ele>0</ele>
        <time>2019-12-13T19:29:17Z</time>
      </trkpt>
      <trkpt lat="59.340369" lon="18.085387">
        <ele>0</ele>
        <time>2019-12-13T19:29:24Z</time>
      </trkpt>
      <trkpt lat="59.340298" lon="18.085498">
        <ele>0</ele>
        <time>2019-12-13T19:29:49Z</time>
      </trkpt>
      <trkpt lat="59.34039" lon="18.085575">
        <ele>0</ele>
        <time>2019-12-13T19:30:03Z</time>
      </trkpt>
      <trkpt lat="59.340488" lon="18.085574">
        <ele>0</ele>
        <time>2019-12-13T19:30:07Z</time>
      </trkpt>
      <trkpt lat="59.340536" lon="18.085413">
        <ele>0</ele>
        <time>2019-12-13T19:30:13Z</time>
      </trkpt>
      <trkpt lat="59.340546" lon="18.085235">
        <ele>0</ele>
        <time>2019-12-13T19:30:16Z</time>
      </trkpt>
      <trkpt lat="59.340436" lon="18.085287">
        <ele>0</ele>
        <time>2019-12-13T19:30:23Z</time>
      </trkpt>
      <trkpt lat="59.340349" lon="18.085326">
        <ele>0</ele>
        <time>2019-12-13T19:30:27Z</time>
      </trkpt>
      <trkpt lat="59.34045" lon="18.085337">
        <ele>0</ele>
        <time>2019-12-13T19:31:11Z</time>
      </trkpt>
      <trkpt lat="59.340362" lon="18.085375">
        <ele>0</ele>
        <time>2019-12-13T19:31:59Z</time>
      </trkpt>
      <trkpt lat="59.340411" lon="18.08521">
        <ele>0</ele>
        <time>2019-12-13T19:32:20Z</time>
      </trkpt>
      <trkpt lat="59.340512" lon="18.085235">
        <ele>0</ele>
        <time>2019-12-13T19:32:30Z</time>
      </trkpt>
      <trkpt lat="59.340537" lon="18.085412">
        <ele>0</ele>
        <time>2019-12-13T19:32:37Z</time>
      </trkpt>
      <trkpt lat="59.340458" lon="18.085536">
        <ele>0</ele>
        <time>2019-12-13T19:33:12Z</time>
      </trkpt>
      <trkpt lat="59.340567" lon="18.085475">
        <ele>0</ele>
        <time>2019-12-13T19:34:05Z</time>
      </trkpt>
      <trkpt lat="59.340471" lon="18.085497">
        <ele>0</ele>
        <time>2019-12-13T19:35:04Z</time>
      </trkpt>
      <trkpt lat="59.340361" lon="18.085499">
        <ele>0</ele>
        <time>2019-12-13T19:35:11Z</time>
      </trkpt>
      <trkpt lat="59.340375" lon="18.085312">
        <ele>0</ele>
        <time>2019-12-13T19:35:36Z</time>
      </trkpt>
      <trkpt lat="59.340463" lon="18.085381">
        <ele>0</ele>
        <time>2019-12-13T19:36:31Z</time>
      </trkpt>
      <trkpt lat="59.34038" lon="18.085478">
        <ele>0</ele>
        <time>2019-12-13T19:36:43Z</time>
      </trkpt>
      <trkpt lat="59.34033" lon="18.085626">
        <ele>0</ele>
        <time>2019-12-13T19:36:51Z</time>
      </trkpt>
      <trkpt lat="59.340328" lon="18.085433">
        <ele>0</ele>
        <time>2019-12-13T19:36:57Z</time>
      </trkpt>
      <trkpt lat="59.340421" lon="18.0854">
        <ele>0</ele>
        <time>2019-12-13T19:37:02Z</time>
      </trkpt>
      <trkpt lat="59.340405" lon="18.085223">
        <ele>0</ele>
        <time>2019-12-13T19:37:16Z</time>
      </trkpt>
      <trkpt lat="59.340327" lon="18.085342">
        <ele>0</ele>
        <time>2019-12-13T19:37:34Z</time>
      </trkpt>
      <trkpt lat="59.340429" lon="18.085372">
        <ele>0</ele>
        <time>2019-12-13T19:37:53Z</time>
      </trkpt>
      <trkpt lat="59.340528" lon="18.085334">
        <ele>0</ele>
        <time>2019-12-13T19:37:59Z</time>
      </trkpt>
      <trkpt lat="59.340438" lon="18.085255">
        <ele>0</ele>
        <time>2019-12-13T19:38:29Z</time>
      </trkpt>
      <trkpt lat="59.340521" lon="18.08536">
        <ele>0</ele>
        <time>2019-12-13T19:38:41Z</time>
      </trkpt>
      <trkpt lat="59.34055" lon="18.085189">
        <ele>0</ele>
        <time>2019-12-13T19:39:03Z</time>
      </trkpt>
      <trkpt lat="59.34063" lon="18.085296">
        <ele>0</ele>
        <time>2019-12-13T19:39:25Z</time>
      </trkpt>
      <trkpt lat="59.340587" lon="18.085462">
        <ele>1</ele>
        <time>2019-12-13T19:39:39Z</time>
      </trkpt>
      <trkpt lat="59.340503" lon="18.085362">
        <ele>1</ele>
        <time>2019-12-13T19:40:22Z</time>
      </trkpt>
      <trkpt lat="59.340512" lon="18.085178">
        <ele>0</ele>
        <time>2019-12-13T19:40:43Z</time>
      </trkpt>
      <trkpt lat="59.340446" lon="18.085308">
        <ele>4</ele>
        <time>2019-12-13T19:41:54Z</time>
      </trkpt>
      <trkpt lat="59.340368" lon="18.085219">
        <ele>4</ele>
        <time>2019-12-13T19:42:29Z</time>
      </trkpt>
      <trkpt lat="59.340456" lon="18.085294">
        <ele>0</ele>
        <time>2019-12-13T19:42:52Z</time>
      </trkpt>
      <trkpt lat="59.34055" lon="18.085298">
        <ele>5</ele>
        <time>2019-12-13T19:43:18Z</time>
      </trkpt>
      <trkpt lat="59.340622" lon="18.085431">
        <ele>0</ele>
        <time>2019-12-13T19:43:30Z</time>
      </trkpt>
      <trkpt lat="59.340561" lon="18.085579">
        <ele>5</ele>
        <time>2019-12-13T19:44:18Z</time>
      </trkpt>
      <trkpt lat="59.340465" lon="18.085499">
        <ele>0</ele>
        <time>2019-12-13T19:44:25Z</time>
      </trkpt>
      <trkpt lat="59.340459" lon="18.085324">
        <ele>0</ele>
        <time>2019-12-13T19:44:33Z</time>
      </trkpt>
      <trkpt lat="59.340552" lon="18.085315">
        <ele>0</ele>
        <time>2019-12-13T19:45:00Z</time>
      </trkpt>
      <trkpt lat="59.340547" lon="18.085519">
        <ele>6</ele>
        <time>2019-12-13T19:45:51Z</time>
      </trkpt>
      <trkpt lat="59.340607" lon="18.085382">
        <ele>7</ele>
        <time>2019-12-13T19:46:03Z</time>
      </trkpt>
      <trkpt lat="59.340537" lon="18.085262">
        <ele>0</ele>
        <time>2019-12-13T19:46:13Z</time>
      </trkpt>
      <trkpt lat="59.34045" lon="18.085216">
        <ele>0</ele>
        <time>2019-12-13T19:46:32Z</time>
      </trkpt>
      <trkpt lat="59.340542" lon="18.085222">
        <ele>0</ele>
        <time>2019-12-13T19:46:48Z</time>
      </trkpt>
      <trkpt lat="59.340616" lon="18.085333">
        <ele>13</ele>
        <time>2019-12-13T19:47:27Z</time>
      </trkpt>
      <trkpt lat="59.34062" lon="18.085514">
        <ele>10</ele>
        <time>2019-12-13T19:48:24Z</time>
      </trkpt>
      <trkpt lat="59.340518" lon="18.085469">
        <ele>0</ele>
        <time>2019-12-13T19:48:35Z</time>
      </trkpt>
      <trkpt lat="59.340612" lon="18.085457">
        <ele>12</ele>
        <time>2019-12-13T19:49:05Z</time>
      </trkpt>
      <trkpt lat="59.340553" lon="18.08532">
        <ele>0</ele>
        <time>2019-12-13T19:49:34Z</time>
      </trkpt>
      <trkpt lat="59.340468" lon="18.085226">
        <ele>0</ele>
        <time>2019-12-13T19:49:42Z</time>
      </trkpt>
      <trkpt lat="59.34054" lon="18.085346">
        <ele>0</ele>
        <time>2019-12-13T19:50:00Z</time>
      </trkpt>
      <trkpt lat="59.340448" lon="18.085376">
        <ele>16</ele>
        <time>2019-12-13T19:50:11Z</time>
      </trkpt>
      <trkpt lat="59.34039" lon="18.085215">
        <ele>0</ele>
        <time>2019-12-13T19:50:21Z</time>
      </trkpt>
      <trkpt lat="59.3404" lon="18.085397">
        <ele>0</ele>
        <time>2019-12-13T19:50:38Z</time>
      </trkpt>
      <trkpt lat="59.340498" lon="18.085451">
        <ele>0</ele>
        <time>2019-12-13T19:50:46Z</time>
      </trkpt>
      <trkpt lat="59.340437" lon="18.085316">
        <ele>0</ele>
        <time>2019-12-13T19:50:54Z</time>
      </trkpt>
      <trkpt lat="59.340357" lon="18.085234">
        <ele>11</ele>
        <time>2019-12-13T19:50:59Z</time>
      </trkpt>
      <trkpt lat="59.340265" lon="18.085224">
        <ele>15</ele>
        <time>2019-12-13T19:51:35Z</time>
      </trkpt>
      <trkpt lat="59.34036" lon="18.085276">
        <ele>0</ele>
        <time>2019-12-13T19:51:46Z</time>
      </trkpt>
      <trkpt lat="59.340443" lon="18.085374">
        <ele>0</ele>
        <time>2019-12-13T19:51:55Z</time>
      </trkpt>
      <trkpt lat="59.340389" lon="18.085219">
        <ele>13</ele>
        <time>2019-12-13T19:52:03Z</time>
      </trkpt>
      <trkpt lat="59.340469" lon="18.085346">
        <ele>0</ele>
        <time>2019-12-13T19:52:08Z</time>
      </trkpt>
      <trkpt lat="59.340557" lon="18.085399">
        <ele>0</ele>
        <time>2019-12-13T19:52:27Z</time>
      </trkpt>
      <trkpt lat="59.340453" lon="18.085345">
        <ele>0</ele>
        <time>2019-12-13T19:52:41Z</time>
      </trkpt>
      <trkpt lat="59.340543" lon="18.085399">
        <ele>0</ele>
        <time>2019-12-13T19:52:58Z</time>
      </trkpt>
      <trkpt lat="59.340469" lon="18.085267">
        <ele>7</ele>
        <time>2019-12-13T19:53:14Z</time>
      </trkpt>
      <trkpt lat="59.340392" lon="18.085122">
        <ele>0</ele>
        <time>2019-12-13T19:53:20Z</time>
      </trkpt>
      <trkpt lat="59.34045" lon="18.085256">
        <ele>0</ele>
        <time>2019-12-13T19:53:34Z</time>
      </trkpt>
      <trkpt lat="59.340452" lon="18.085437">
        <ele>8</ele>
        <time>2019-12-13T19:54:10Z</time>
      </trkpt>
      <trkpt lat="59.340502" lon="18.085283">
        <ele>0</ele>
        <time>2019-12-13T19:54:36Z</time>
      </trkpt>
      <trkpt lat="59.340411" lon="18.085343">
        <ele>0</ele>
        <time>2019-12-13T19:55:00Z</time>
      </trkpt>
      <trkpt lat="59.340491" lon="18.085257">
        <ele>8</ele>
        <time>2019-12-13T19:55:26Z</time>
      </trkpt>
      <trkpt lat="59.340569" lon="18.085161">
        <ele>0</ele>
        <time>2019-12-13T19:55:46Z</time>
      </trkpt>
      <trkpt lat="59.340534" lon="18.085332">
        <ele>4</ele>
        <time>2019-12-13T19:56:20Z</time>
      </trkpt>
      <trkpt lat="59.340436" lon="18.085309">
        <ele>5</ele>
        <time>2019-12-13T19:56:29Z</time>
      </trkpt>
      <trkpt lat="59.340355" lon="18.085221">
        <ele>3</ele>
        <time>2019-12-13T19:56:49Z</time>
      </trkpt>
      <trkpt lat="59.340438" lon="18.085307">
        <ele>0</ele>
        <time>2019-12-13T19:57:00Z</time>
      </trkpt>
      <trkpt lat="59.340411" lon="18.08549">
        <ele>2</ele>
        <time>2019-12-13T19:58:13Z</time>
      </trkpt>
      <trkpt lat="59.340318" lon="18.085439">
        <ele>0</ele>
        <time>2019-12-13T19:58:25Z</time>
      </trkpt>
      <trkpt lat="59.34035" lon="18.085274">
        <ele>0</ele>
        <time>2019-12-13T19:58:44Z</time>
      </trkpt>
      <trkpt lat="59.340412" lon="18.085419">
        <ele>2</ele>
        <time>2019-12-13T19:58:59Z</time>
      </trkpt>
      <trkpt lat="59.340504" lon="18.085341">
        <ele>1</ele>
        <time>2019-12-13T19:59:13Z</time>
      </trkpt>
      <trkpt lat="59.340577" lon="18.08547">
        <ele>5</ele>
        <time>2019-12-13T20:00:07Z</time>
      </trkpt>
      <trkpt lat="59.340492" lon="18.085393">
        <ele>8</ele>
        <time>2019-12-13T20:00:49Z</time>
      </trkpt>
      <trkpt lat="59.340527" lon="18.085566">
        <ele>10</ele>
        <time>2019-12-13T20:01:16Z</time>
      </trkpt>
      <trkpt lat="59.340494" lon="18.085384">
        <ele>0</ele>
        <time>2019-12-13T20:01:26Z</time>
      </trkpt>
      <trkpt lat="59.340532" lon="18.08555">
        <ele>0</ele>
        <time>2019-12-13T20:01:52Z</time>
      </trkpt>
      <trkpt lat="59.340452" lon="18.085398">
        <ele>9</ele>
        <time>2019-12-13T20:02:37Z</time>
      </trkpt>
      <trkpt lat="59.340374" lon="18.085298">
        <ele>7</ele>
        <time>2019-12-13T20:03:03Z</time>
      </trkpt>
      <trkpt lat="59.340419" lon="18.085464">
        <ele>0</ele>
        <time>2019-12-13T20:03:42Z</time>
      </trkpt>
      <trkpt lat="59.340395" lon="18.085294">
        <ele>14</ele>
        <time>2019-12-13T20:04:03Z</time>
      </trkpt>
      <trkpt lat="59.340475" lon="18.085401">
        <ele>16</ele>
        <time>2019-12-13T20:04:19Z</time>
      </trkpt>
      <trkpt lat="59.340567" lon="18.085427">
        <ele>0</ele>
        <time>2019-12-13T20:04:42Z</time>
      </trkpt>
      <trkpt lat="59.340478" lon="18.085375">
        <ele>0</ele>
        <time>2019-12-13T20:04:56Z</time>
      </trkpt>
      <trkpt lat="59.340458" lon="18.085563">
        <ele>20</ele>
        <time>2019-12-13T20:05:22Z</time>
      </trkpt>
      <trkpt lat="59.340548" lon="18.085567">
        <ele>0</ele>
        <time>2019-12-13T20:05:42Z</time>
      </trkpt>
      <trkpt lat="59.340556" lon="18.085377">
        <ele>18</ele>
        <time>2019-12-13T20:06:14Z</time>
      </trkpt>
      <trkpt lat="59.340486" lon="18.085535">
        <ele>0</ele>
        <time>2019-12-13T20:06:23Z</time>
      </trkpt>
      <trkpt lat="59.340477" lon="18.085358">
        <ele>13</ele>
        <time>2019-12-13T20:07:06Z</time>
      </trkpt>
      <trkpt lat="59.340571" lon="18.085336">
        <ele>20</ele>
        <time>2019-12-13T20:07:39Z</time>
      </trkpt>
      <trkpt lat="59.340523" lon="18.085489">
        <ele>0</ele>
        <time>2019-12-13T20:07:52Z</time>
      </trkpt>
      <trkpt lat="59.340613" lon="18.085489">
        <ele>20</ele>
        <time>2019-12-13T20:08:22Z</time>
      </trkpt>
      <trkpt lat="59.340564" lon="18.085642">
        <ele>20</ele>
        <time>2019-12-13T20:09:10Z</time>
      </trkpt>
      <trkpt lat="59.340509" lon="18.08547">
        <ele>0</ele>
        <time>2019-12-13T20:09:21Z</time>
      </trkpt>
      <trkpt lat="59.340606" lon="18.085536">
        <ele>0</ele>
        <time>2019-12-13T20:09:36Z</time>
      </trkpt>
      <trkpt lat="59.3407" lon="18.085468">
        <ele>0</ele>
        <time>2019-12-13T20:09:46Z</time>
      </trkpt>
      <trkpt lat="59.340617" lon="18.085363">
        <ele>0</ele>
        <time>2019-12-13T20:09:55Z</time>
      </trkpt>
      <trkpt lat="59.340543" lon="18.085472">
        <ele>18</ele>
        <time>2019-12-13T20:10:13Z</time>
      </trkpt>
      <trkpt lat="59.340513" lon="18.085656">
        <ele>0</ele>
        <time>2019-12-13T20:10:40Z</time>
      </trkpt>
      <trkpt lat="59.340538" lon="18.085469">
        <ele>0</ele>
        <time>2019-12-13T20:10:52Z</time>
      </trkpt>
      <trkpt lat="59.34053" lon="18.085258">
        <ele>16</ele>
        <time>2019-12-13T20:11:01Z</time>
      </trkpt>
      <trkpt lat="59.340551" lon="18.085431">
        <ele>0</ele>
        <time>2019-12-13T20:11:27Z</time>
      </trkpt>
      <trkpt lat="59.340535" lon="18.085635">
        <ele>0</ele>
        <time>2019-12-13T20:11:37Z</time>
      </trkpt>
      <trkpt lat="59.34061" lon="18.085742">
        <ele>15</ele>
        <time>2019-12-13T20:11:49Z</time>
      </trkpt>
      <trkpt lat="59.340673" lon="18.085613">
        <ele>0</ele>
        <time>2019-12-13T20:11:51Z</time>
      </trkpt>
      <trkpt lat="59.340672" lon="18.085409">
        <ele>0</ele>
        <time>2019-12-13T20:11:55Z</time>
      </trkpt>
      <trkpt lat="59.340592" lon="18.085315">
        <ele>12</ele>
        <time>2019-12-13T20:12:04Z</time>
      </trkpt>
      <trkpt lat="59.340497" lon="18.085267">
        <ele>0</ele>
        <time>2019-12-13T20:12:12Z</time>
      </trkpt>
      <trkpt lat="59.340408" lon="18.085154">
        <ele>0</ele>
        <time>2019-12-13T20:12:14Z</time>
      </trkpt>
      <trkpt lat="59.340451" lon="18.085315">
        <ele>0</ele>
        <time>2019-12-13T20:12:56Z</time>
      </trkpt>
      <trkpt lat="59.34055" lon="18.085372">
        <ele>11</ele>
        <time>2019-12-13T20:13:04Z</time>
      </trkpt>
      <trkpt lat="59.340558" lon="18.085559">
        <ele>13</ele>
        <time>2019-12-13T20:14:08Z</time>
      </trkpt>
      <trkpt lat="59.340487" lon="18.085435">
        <ele>0</ele>
        <time>2019-12-13T20:14:54Z</time>
      </trkpt>
      <trkpt lat="59.340596" lon="18.085417">
        <ele>18</ele>
        <time>2019-12-13T20:15:47Z</time>
      </trkpt>
      <trkpt lat="59.340632" lon="18.08524">
        <ele>0</ele>
        <time>2019-12-13T20:15:50Z</time>
      </trkpt>
      <trkpt lat="59.34068" lon="18.085085">
        <ele>0</ele>
        <time>2019-12-13T20:15:52Z</time>
      </trkpt>
      <trkpt lat="59.340631" lon="18.085248">
        <ele>18</ele>
        <time>2019-12-13T20:16:07Z</time>
      </trkpt>
      <trkpt lat="59.340671" lon="18.085409">
        <ele>0</ele>
        <time>2019-12-13T20:16:14Z</time>
      </trkpt>
      <trkpt lat="59.340574" lon="18.085371">
        <ele>0</ele>
        <time>2019-12-13T20:16:20Z</time>
      </trkpt>
      <trkpt lat="59.340483" lon="18.085313">
        <ele>18</ele>
        <time>2019-12-13T20:16:39Z</time>
      </trkpt>
      <trkpt lat="59.340537" lon="18.085457">
        <ele>17</ele>
        <time>2019-12-13T20:17:19Z</time>
      </trkpt>
      <trkpt lat="59.340633" lon="18.085492">
        <ele>0</ele>
        <time>2019-12-13T20:17:38Z</time>
      </trkpt>
      <trkpt lat="59.340541" lon="18.08546">
        <ele>20</ele>
        <time>2019-12-13T20:18:58Z</time>
      </trkpt>
      <trkpt lat="59.340497" lon="18.085296">
        <ele>22</ele>
        <time>2019-12-13T20:21:12Z</time>
      </trkpt>
      <trkpt lat="59.340477" lon="18.085117">
        <ele>0</ele>
        <time>2019-12-13T20:21:27Z</time>
      </trkpt>
      <trkpt lat="59.340395" lon="18.085204">
        <ele>0</ele>
        <time>2019-12-13T20:21:44Z</time>
      </trkpt>
      <trkpt lat="59.34049" lon="18.085208">
        <ele>17</ele>
        <time>2019-12-13T20:22:12Z</time>
      </trkpt>
      <trkpt lat="59.340532" lon="18.085371">
        <ele>0</ele>
        <time>2019-12-13T20:22:36Z</time>
      </trkpt>
      <trkpt lat="59.340527" lon="18.085549">
        <ele>0</ele>
        <time>2019-12-13T20:22:47Z</time>
      </trkpt>
      <trkpt lat="59.340523" lon="18.085372">
        <ele>21</ele>
        <time>2019-12-13T20:23:17Z</time>
      </trkpt>
      <trkpt lat="59.340608" lon="18.08544">
        <ele>0</ele>
        <time>2019-12-13T20:23:50Z</time>
      </trkpt>
      <trkpt lat="59.340587" lon="18.085617">
        <ele>22</ele>
        <time>2019-12-13T20:24:07Z</time>
      </trkpt>
      <trkpt lat="59.340496" lon="18.085614">
        <ele>0</ele>
        <time>2019-12-13T20:24:17Z</time>
      </trkpt>
      <trkpt lat="59.340497" lon="18.085403">
        <ele>0</ele>
        <time>2019-12-13T20:24:31Z</time>
      </trkpt>
      <trkpt lat="59.340564" lon="18.085529">
        <ele>22</ele>
        <time>2019-12-13T20:25:06Z</time>
      </trkpt>
      <trkpt lat="59.340554" lon="18.085707">
        <ele>0</ele>
        <time>2019-12-13T20:25:40Z</time>
      </trkpt>
      <trkpt lat="59.34056" lon="18.085512">
        <ele>22</ele>
        <time>2019-12-13T20:26:02Z</time>
      </trkpt>
      <trkpt lat="59.340492" lon="18.085366">
        <ele>0</ele>
        <time>2019-12-13T20:26:32Z</time>
      </trkpt>
      <trkpt lat="59.340589" lon="18.085383">
        <ele>17</ele>
        <time>2019-12-13T20:27:20Z</time>
      </trkpt>
      <trkpt lat="59.340547" lon="18.085223">
        <ele>18</ele>
        <time>2019-12-13T20:27:49Z</time>
      </trkpt>
      <trkpt lat="59.340555" lon="18.085173">
        <ele>18</ele>
        <time>2019-12-13T20:28:03Z</time>
      </trkpt>
    </trkseg>
  </trk>
</gpx>